createdAt,value
2019-01-30T00:00:16.061Z,9.47
2019-01-30T00:02:48.754Z,9.73
2019-01-30T00:05:19.559Z,6.00
2019-01-30T00:07:50.414Z,9.33
2019-01-30T00:10:21.581Z,6.93
2019-01-30T00:12:52.682Z,6.80
2019-01-30T00:15:23.751Z,6.30
2019-01-30T00:17:54.798Z,8.30
2019-01-30T00:20:25.861Z,7.27
2019-01-30T00:22:56.722Z,6.30
2019-01-30T00:25:27.505Z,6.23
2019-01-30T00:27:58.648Z,9.80
2019-01-30T00:30:29.478Z,7.63
2019-01-30T00:33:00.501Z,6.67
2019-01-30T00:35:31.363Z,6.77
2019-01-30T00:38:02.186Z,7.70
2019-01-30T00:40:33.330Z,5.97
2019-01-30T00:43:04.251Z,7.90
2019-01-30T00:45:35.243Z,6.47
2019-01-30T00:48:06.170Z,8.10
2019-01-30T00:50:37.003Z,6.07
2019-01-30T00:53:07.860Z,7.00
2019-01-30T00:55:38.706Z,5.63
2019-01-30T00:58:10.102Z,7.60
2019-01-30T01:00:41.011Z,6.57
2019-01-30T01:03:11.945Z,5.80
2019-01-30T01:05:42.798Z,5.93
2019-01-30T01:08:13.962Z,5.23
2019-01-30T01:10:44.908Z,6.23
2019-01-30T01:13:16.011Z,6.10
2019-01-30T01:15:46.848Z,5.87
2019-01-30T01:18:18.030Z,6.13
2019-01-30T01:20:48.920Z,6.13
2019-01-30T01:23:20.005Z,5.50
2019-01-30T01:25:51.022Z,5.67
2019-01-30T01:28:21.870Z,6.73
2019-01-30T01:30:52.933Z,5.83
2019-01-30T01:33:25.885Z,5.33
2019-01-30T01:35:57.140Z,8.20
2019-01-30T01:38:27.919Z,6.00
2019-01-30T01:40:58.859Z,6.57
2019-01-30T01:43:29.923Z,6.23
2019-01-30T01:46:10.475Z,7.17
2019-01-30T01:48:41.455Z,7.00
2019-01-30T01:51:12.295Z,5.93
2019-01-30T01:53:43.278Z,8.53
2019-01-30T01:56:14.292Z,7.33
2019-01-30T01:58:45.045Z,6.23
2019-01-30T02:01:16.341Z,6.93
2019-01-30T02:03:47.101Z,6.70
2019-01-30T02:06:17.923Z,5.50
2019-01-30T02:08:48.977Z,6.40
2019-01-30T02:11:19.795Z,9.00
2019-01-30T02:13:50.637Z,7.47
2019-01-30T02:16:21.584Z,8.77
2019-01-30T02:18:52.461Z,7.63
2019-01-30T02:21:24.617Z,6.53
2019-01-30T02:23:55.590Z,7.50
2019-01-30T02:26:26.726Z,8.80
2019-01-30T02:28:57.501Z,8.77
2019-01-30T02:31:28.566Z,6.33
2019-01-30T02:33:59.400Z,6.33
2019-01-30T02:36:30.373Z,6.23
2019-01-30T02:39:01.128Z,6.77
2019-01-30T02:41:33.462Z,5.40
2019-01-30T02:44:04.618Z,6.60
2019-01-30T02:46:35.597Z,6.97
2019-01-30T02:49:06.436Z,7.37
2019-01-30T02:51:37.412Z,8.63
2019-01-30T02:54:08.167Z,6.67
2019-01-30T02:56:39.426Z,11.77
2019-01-30T02:59:10.336Z,5.67
2019-01-30T03:01:58.831Z,6.67
2019-01-30T03:04:29.657Z,8.13
2019-01-30T03:07:00.644Z,6.50
2019-01-30T03:09:31.737Z,8.00
2019-01-30T03:12:02.714Z,6.03
2019-01-30T03:14:33.949Z,7.90
2019-01-30T03:17:05.093Z,7.97
2019-01-30T03:19:36.077Z,7.93
2019-01-30T03:22:07.439Z,5.53
2019-01-30T03:24:38.197Z,7.57
2019-01-30T03:27:09.193Z,7.80
2019-01-30T03:29:40.521Z,8.13
2019-01-30T03:32:11.335Z,6.63
2019-01-30T03:34:42.602Z,6.87
2019-01-30T03:37:13.426Z,6.80
2019-01-30T03:39:44.436Z,9.00
2019-01-30T03:42:15.694Z,7.93
2019-01-30T03:44:46.732Z,6.77
2019-01-30T03:47:17.581Z,5.97
2019-01-30T03:49:48.578Z,7.70
2019-01-30T03:52:19.554Z,7.00
2019-01-30T03:54:50.897Z,4.80
2019-01-30T03:57:21.935Z,5.87
2019-01-30T03:59:53.285Z,5.87
2019-01-30T04:02:24.043Z,6.97
2019-01-30T04:04:54.867Z,6.43
2019-01-30T04:07:25.870Z,5.90
2019-01-30T04:09:56.740Z,6.37
2019-01-30T04:12:28.065Z,6.13
2019-01-30T04:14:58.839Z,6.33
2019-01-30T04:17:29.803Z,6.10
2019-01-30T04:20:00.670Z,6.37
2019-01-30T04:22:31.736Z,6.23
2019-01-30T04:25:02.496Z,7.83
2019-01-30T04:27:33.721Z,5.33
2019-01-30T04:30:06.334Z,6.40
2019-01-30T04:32:37.319Z,5.27
2019-01-30T04:35:08.499Z,7.87
2019-01-30T04:37:39.307Z,6.33
2019-01-30T04:40:12.885Z,7.53
2019-01-30T04:42:43.627Z,5.87
2019-01-30T04:45:17.480Z,6.37
2019-01-30T04:47:52.264Z,5.70
2019-01-30T04:50:23.278Z,7.00
2019-01-30T04:52:54.252Z,7.40
2019-01-30T04:55:25.193Z,7.17
2019-01-30T04:57:58.167Z,7.70
2019-01-30T05:00:28.529Z,7.60
2019-01-30T05:02:59.493Z,8.33
2019-01-30T05:05:30.251Z,6.20
2019-01-30T05:08:00.996Z,6.83
2019-01-30T05:10:32.094Z,7.83
2019-01-30T05:13:02.909Z,6.93
2019-01-30T05:15:33.771Z,6.60
2019-01-30T05:18:04.628Z,8.03
2019-01-30T05:20:35.713Z,6.37
2019-01-30T05:23:06.749Z,12.23
2019-01-30T05:25:37.531Z,9.70
2019-01-30T05:28:08.368Z,7.60
2019-01-30T05:30:39.332Z,6.70
2019-01-30T05:33:10.308Z,7.00
2019-01-30T05:35:41.285Z,10.67
2019-01-30T05:38:12.692Z,8.97
2019-01-30T05:40:43.524Z,7.93
2019-01-30T05:43:14.331Z,7.60
2019-01-30T05:45:45.559Z,12.37
2019-01-30T05:48:16.373Z,9.10
2019-01-30T05:50:47.126Z,10.13
2019-01-30T05:53:18.242Z,7.77
2019-01-30T05:55:49.323Z,7.50
2019-01-30T05:58:20.361Z,9.00
2019-01-30T06:00:51.434Z,8.63
2019-01-30T06:03:22.180Z,9.57
2019-01-30T06:05:53.553Z,11.47
2019-01-30T06:08:24.248Z,8.50
2019-01-30T06:10:55.082Z,8.47
2019-01-30T06:13:25.937Z,13.07
2019-01-30T06:15:57.675Z,12.00
2019-01-30T06:18:29.391Z,11.30
2019-01-30T06:21:00.235Z,10.20
2019-01-30T06:23:31.061Z,10.53
2019-01-30T06:26:02.049Z,9.93
2019-01-30T06:28:33.042Z,11.87
2019-01-30T06:31:05.713Z,12.23
2019-01-30T06:33:36.602Z,9.10
2019-01-30T06:36:07.439Z,10.20
2019-01-30T06:38:38.271Z,10.70
2019-01-30T06:41:10.076Z,10.33
2019-01-30T06:43:41.102Z,11.13
2019-01-30T06:46:12.224Z,8.90
2019-01-30T06:48:43.199Z,9.60
2019-01-30T06:51:13.969Z,13.67
2019-01-30T06:53:44.718Z,10.23
2019-01-30T06:56:15.483Z,10.27
2019-01-30T06:58:46.464Z,9.77
2019-01-30T07:01:17.546Z,10.70
2019-01-30T07:03:48.632Z,8.87
2019-01-30T07:06:19.456Z,9.20
2019-01-30T07:08:50.279Z,9.53
2019-01-30T07:11:21.264Z,8.47
2019-01-30T07:13:52.585Z,7.90
2019-01-30T07:16:23.820Z,7.60
2019-01-30T07:18:55.038Z,8.73
2019-01-30T07:21:25.803Z,8.50
2019-01-30T07:23:56.549Z,8.97
2019-01-30T07:26:27.494Z,9.13
2019-01-30T07:28:58.514Z,8.40
2019-01-30T07:31:29.354Z,9.13
2019-01-30T07:34:00.110Z,8.17
2019-01-30T07:36:30.969Z,8.97
2019-01-30T07:39:02.068Z,8.17
2019-01-30T07:41:33.605Z,8.43
2019-01-30T07:44:04.588Z,6.93
2019-01-30T07:46:35.681Z,7.43
2019-01-30T07:49:06.517Z,8.40
2019-01-30T07:51:37.661Z,7.63
2019-01-30T07:54:08.478Z,5.97
2019-01-30T07:56:40.200Z,5.77
2019-01-30T07:59:11.007Z,5.43
2019-01-30T08:01:42.073Z,6.77
2019-01-30T08:04:12.820Z,7.13
2019-01-30T08:06:43.839Z,6.13
2019-01-30T08:09:14.871Z,6.87
2019-01-30T08:11:45.705Z,6.87
2019-01-30T08:14:16.448Z,8.77
2019-01-30T08:16:48.028Z,6.73
2019-01-30T08:19:18.853Z,7.23
2019-01-30T08:21:49.831Z,6.60
2019-01-30T08:24:21.005Z,6.80
2019-01-30T08:26:52.001Z,7.63
2019-01-30T08:29:23.203Z,6.33
2019-01-30T08:31:54.244Z,6.53
2019-01-30T08:34:25.246Z,7.27
2019-01-30T08:36:56.544Z,6.93
2019-01-30T08:39:27.281Z,7.10
2019-01-30T08:41:58.272Z,6.97
2019-01-30T08:44:29.332Z,6.87
2019-01-30T08:47:00.145Z,6.80
2019-01-30T08:49:31.252Z,9.33
2019-01-30T08:52:02.639Z,6.60
2019-01-30T08:54:33.405Z,8.60
2019-01-30T08:57:04.413Z,8.30
2019-01-30T08:59:35.236Z,7.40
2019-01-30T09:02:06.459Z,6.20
2019-01-30T09:04:37.196Z,7.37
2019-01-30T09:07:08.032Z,7.67
2019-01-30T09:09:38.845Z,9.50
2019-01-30T09:12:09.733Z,5.20
2019-01-30T09:14:40.732Z,6.10
2019-01-30T09:17:11.572Z,4.70
2019-01-30T09:19:42.559Z,5.10
2019-01-30T09:22:13.524Z,4.60
2019-01-30T09:24:44.512Z,4.33
2019-01-30T09:27:15.335Z,5.03
2019-01-30T09:29:46.079Z,4.10
2019-01-30T09:32:16.852Z,4.07
2019-01-30T09:34:47.814Z,4.13
2019-01-30T09:37:18.621Z,3.83
2019-01-30T09:39:49.566Z,3.63
2019-01-30T09:42:20.556Z,3.83
2019-01-30T09:44:51.329Z,5.10
2019-01-30T09:47:22.347Z,3.90
2019-01-30T09:49:53.105Z,4.07
2019-01-30T09:52:27.043Z,4.17
2019-01-30T09:54:56.590Z,4.17
2019-01-30T09:57:27.612Z,3.93
2019-01-30T09:59:58.718Z,3.87
2019-01-30T10:02:29.415Z,4.27
2019-01-30T10:05:00.407Z,3.37
2019-01-30T10:07:31.467Z,3.57
2019-01-30T10:10:02.265Z,4.60
2019-01-30T10:12:33.098Z,3.10
2019-01-30T10:15:04.786Z,4.67
2019-01-30T10:17:35.879Z,3.87
2019-01-30T10:20:09.855Z,4.53
2019-01-30T10:22:40.687Z,3.70
2019-01-30T10:25:11.754Z,3.20
2019-01-30T10:27:43.852Z,3.40
2019-01-30T10:30:17.571Z,2.87
2019-01-30T10:32:48.581Z,2.70
2019-01-30T10:35:19.382Z,2.90
2019-01-30T10:37:50.439Z,2.50
2019-01-30T10:40:21.321Z,2.60
2019-01-30T10:42:52.425Z,3.00
2019-01-30T10:45:23.597Z,2.90
2019-01-30T10:47:54.355Z,3.10
2019-01-30T10:50:26.209Z,3.53
2019-01-30T10:52:57.036Z,3.27
2019-01-30T10:55:29.366Z,4.17
2019-01-30T10:58:02.292Z,3.73
2019-01-30T11:00:44.470Z,5.17
2019-01-30T11:03:15.478Z,4.37
2019-01-30T11:05:46.607Z,3.93
2019-01-30T11:08:17.574Z,3.53
2019-01-30T11:10:50.821Z,3.93
2019-01-30T11:13:21.102Z,2.53
2019-01-30T11:15:51.925Z,3.73
2019-01-30T11:18:22.965Z,2.50
2019-01-30T11:20:53.778Z,2.60
2019-01-30T11:23:24.839Z,4.83
2019-01-30T11:25:57.048Z,3.80
2019-01-30T11:28:28.144Z,3.00
2019-01-30T11:30:59.116Z,2.53
2019-01-30T11:33:30.091Z,2.93
2019-01-30T11:36:01.130Z,14.83
2019-01-30T11:38:32.093Z,5.73
2019-01-30T11:41:02.989Z,6.07
2019-01-30T11:43:34.052Z,3.90
2019-01-30T11:46:05.067Z,3.53
2019-01-30T11:48:36.100Z,2.80
2019-01-30T11:51:06.960Z,4.03
2019-01-30T11:53:37.802Z,3.37
2019-01-30T11:56:08.849Z,2.80
2019-01-30T11:58:39.599Z,2.40
2019-01-30T12:01:10.575Z,2.77
2019-01-30T12:03:41.715Z,3.03
2019-01-30T12:06:12.532Z,2.27
2019-01-30T12:08:43.645Z,2.07
2019-01-30T12:11:14.682Z,1.70
2019-01-30T12:13:45.752Z,2.77
2019-01-30T12:16:16.560Z,1.80
2019-01-30T12:18:47.552Z,1.80
2019-01-30T12:21:18.376Z,1.90
2019-01-30T12:23:49.453Z,1.60
2019-01-30T12:26:20.747Z,1.50
2019-01-30T12:28:51.648Z,1.40
2019-01-30T12:31:22.937Z,1.70
2019-01-30T12:33:54.006Z,1.40
2019-01-30T12:36:25.321Z,1.50
2019-01-30T12:38:56.931Z,1.77
2019-01-30T12:41:27.915Z,2.37
2019-01-30T12:43:58.695Z,1.80
2019-01-30T12:46:29.432Z,1.40
2019-01-30T12:49:00.429Z,1.40
2019-01-30T12:51:31.656Z,1.57
2019-01-30T12:54:02.673Z,1.80
2019-01-30T12:56:33.409Z,1.50
2019-01-30T12:59:04.332Z,1.90
2019-01-30T13:01:35.077Z,2.20
2019-01-30T13:04:06.387Z,1.57
2019-01-30T13:06:37.354Z,2.93
2019-01-30T13:09:09.693Z,1.53
2019-01-30T13:11:40.430Z,1.60
2019-01-30T13:14:11.416Z,1.90
2019-01-30T13:16:42.262Z,2.03
2019-01-30T13:19:13.148Z,2.93
2019-01-30T13:21:44.128Z,2.80
2019-01-30T13:24:14.934Z,2.17
2019-01-30T13:26:45.769Z,1.93
2019-01-30T13:29:16.524Z,3.20
2019-01-30T13:31:47.265Z,2.10
2019-01-30T13:34:18.836Z,2.27
2019-01-30T13:36:49.585Z,3.30
2019-01-30T13:39:20.574Z,2.00
2019-01-30T13:41:52.753Z,1.80
2019-01-30T13:44:23.540Z,2.70
2019-01-30T13:46:54.280Z,2.17
2019-01-30T13:49:25.116Z,2.27
2019-01-30T13:51:56.193Z,3.10
2019-01-30T13:54:27.553Z,1.83
2019-01-30T13:56:58.598Z,2.10
2019-01-30T13:59:29.761Z,3.40
2019-01-30T14:02:00.551Z,3.57
2019-01-30T14:04:31.418Z,2.00
2019-01-30T14:07:02.411Z,1.97
2019-01-30T14:09:33.265Z,1.63
2019-01-30T14:12:04.282Z,2.50
2019-01-30T14:14:35.445Z,1.77
2019-01-30T14:17:06.216Z,1.70
2019-01-30T14:19:36.981Z,1.70
2019-01-30T14:22:07.790Z,1.97
2019-01-30T14:24:38.534Z,1.90
2019-01-30T14:27:09.597Z,2.13
2019-01-30T14:29:40.379Z,2.03
2019-01-30T14:32:11.170Z,2.10
2019-01-30T14:34:41.954Z,3.67
2019-01-30T14:37:12.673Z,2.53
2019-01-30T14:39:43.516Z,2.37
2019-01-30T14:42:14.258Z,2.40
2019-01-30T14:44:45.338Z,2.53
2019-01-30T14:47:16.357Z,2.57
2019-01-30T14:49:47.174Z,2.87
2019-01-30T14:52:18.970Z,4.27
2019-01-30T14:54:49.997Z,3.07
2019-01-30T14:57:20.773Z,2.10
2019-01-30T14:59:51.971Z,2.30
2019-01-30T15:02:23.013Z,2.20
2019-01-30T15:04:54.163Z,2.40
2019-01-30T15:07:29.047Z,2.10
2019-01-30T15:09:57.438Z,2.10
2019-01-30T15:12:28.940Z,1.90
2019-01-30T15:14:59.751Z,2.70
2019-01-30T15:17:30.742Z,2.13
2019-01-30T15:20:01.905Z,3.80
2019-01-30T15:22:33.100Z,4.50
2019-01-30T15:25:06.145Z,3.60
2019-01-30T15:27:36.893Z,9.63
2019-01-30T15:30:10.680Z,3.40
2019-01-30T15:32:41.684Z,3.30
2019-01-30T15:35:12.522Z,4.97
2019-01-30T15:37:43.488Z,5.33
2019-01-30T15:40:16.872Z,2.43
2019-01-30T15:42:49.429Z,2.40
2019-01-30T15:45:20.858Z,2.80
2019-01-30T15:47:51.758Z,2.43
2019-01-30T15:50:24.906Z,2.73
2019-01-30T15:52:57.169Z,2.60
2019-01-30T15:55:28.052Z,2.90
2019-01-30T16:00:44.376Z,2.50
2019-01-30T16:03:15.456Z,2.60
2019-01-30T16:05:46.276Z,3.10
2019-01-30T16:08:17.323Z,2.50
2019-01-30T16:10:48.189Z,4.33
2019-01-30T16:13:18.934Z,3.53
2019-01-30T16:15:53.298Z,3.20
2019-01-30T16:18:24.104Z,4.20
2019-01-30T16:20:55.003Z,3.33
2019-01-30T16:23:26.368Z,3.40
2019-01-30T16:25:57.362Z,3.67
2019-01-30T16:28:28.183Z,4.23
2019-01-30T16:30:59.208Z,4.27
2019-01-30T16:33:30.176Z,3.70
2019-01-30T16:36:00.944Z,3.87
2019-01-30T16:38:31.999Z,6.03
2019-01-30T16:41:03.110Z,4.30
2019-01-30T16:43:33.995Z,4.63
2019-01-30T16:46:05.391Z,3.83
2019-01-30T16:48:36.169Z,4.57
2019-01-30T16:51:07.248Z,4.03
2019-01-30T16:53:38.073Z,4.00
2019-01-30T16:56:08.920Z,3.50
2019-01-30T16:58:40.135Z,3.37
2019-01-30T17:01:11.138Z,3.90
2019-01-30T17:03:41.900Z,3.90
2019-01-30T17:06:13.104Z,4.23
2019-01-30T17:08:43.841Z,5.53
2019-01-30T17:11:14.713Z,9.13
2019-01-30T17:13:45.724Z,12.53
2019-01-30T17:16:18.175Z,5.73
2019-01-30T17:18:49.154Z,5.83
2019-01-30T17:21:19.924Z,8.23
2019-01-30T17:23:50.912Z,6.03
2019-01-30T17:26:21.891Z,7.80
2019-01-30T17:28:52.722Z,6.93
2019-01-30T17:31:29.419Z,7.67
2019-01-30T17:34:00.381Z,9.47
2019-01-30T17:36:31.493Z,7.40
2019-01-30T17:39:03.399Z,7.67
2019-01-30T17:41:35.989Z,7.07
2019-01-30T17:44:06.980Z,7.40
2019-01-30T17:46:37.815Z,7.63
2019-01-30T17:49:08.812Z,7.30
2019-01-30T17:51:39.576Z,10.33
2019-01-30T17:54:10.336Z,13.50
2019-01-30T17:56:41.492Z,10.13
2019-01-30T17:59:12.304Z,10.03
2019-01-30T18:01:43.707Z,8.63
2019-01-30T18:04:14.731Z,8.87
2019-01-30T18:06:45.485Z,19.53
2019-01-30T18:09:16.660Z,8.03
2019-01-30T18:11:47.550Z,6.30
2019-01-30T18:14:18.297Z,7.80
2019-01-30T18:16:49.347Z,11.77
2019-01-30T18:19:20.193Z,12.03
2019-01-30T18:21:51.078Z,7.30
2019-01-30T18:24:22.425Z,7.40
2019-01-30T18:26:53.274Z,6.50
2019-01-30T18:29:24.550Z,6.27
2019-01-30T18:31:55.636Z,5.17
2019-01-30T18:34:26.372Z,5.60
2019-01-30T18:36:57.149Z,6.57
2019-01-30T18:39:28.236Z,10.10
2019-01-30T18:41:59.548Z,10.03
2019-01-30T18:44:30.597Z,7.87
2019-01-30T18:47:01.920Z,10.07
2019-01-30T18:49:33.291Z,9.03
2019-01-30T18:52:04.245Z,4.70
2019-01-30T18:54:35.551Z,5.60
2019-01-30T18:57:06.618Z,4.87
2019-01-30T18:59:37.587Z,7.23
2019-01-30T19:02:08.431Z,5.53
2019-01-30T19:04:39.775Z,5.17
2019-01-30T19:07:10.601Z,6.57
2019-01-30T19:09:41.581Z,6.30
2019-01-30T19:12:13.241Z,6.83
2019-01-30T19:14:44.017Z,4.97
2019-01-30T19:17:16.874Z,6.70
2019-01-30T19:19:47.785Z,24.40
2019-01-30T19:22:19.518Z,9.37
2019-01-30T19:24:50.265Z,7.53
2019-01-30T19:27:21.025Z,6.67
2019-01-30T19:29:51.990Z,7.67
2019-01-30T19:32:22.824Z,7.43
2019-01-30T19:34:53.858Z,8.20
2019-01-30T19:37:24.636Z,8.37
2019-01-30T19:39:55.581Z,6.77
2019-01-30T19:42:26.339Z,7.47
2019-01-30T19:44:57.628Z,7.07
2019-01-30T19:47:28.672Z,5.67
2019-01-30T19:49:59.419Z,6.87
2019-01-30T19:52:30.402Z,5.30
2019-01-30T19:55:01.257Z,7.73
2019-01-30T19:57:32.332Z,6.13
2019-01-30T20:00:03.487Z,5.70
2019-01-30T20:02:35.953Z,12.23
2019-01-30T20:05:09.015Z,10.20
2019-01-30T20:07:39.778Z,7.03
2019-01-30T20:10:14.197Z,8.80
2019-01-30T20:12:45.386Z,6.47
2019-01-30T20:15:16.585Z,7.30
2019-01-30T20:17:47.428Z,6.57
2019-01-30T20:20:20.954Z,6.90
2019-01-30T20:22:51.091Z,9.47
2019-01-30T20:25:23.779Z,10.33
2019-01-30T20:27:54.868Z,5.93
2019-01-30T20:30:25.874Z,5.33
2019-01-30T20:32:57.009Z,7.20
2019-01-30T20:35:28.089Z,6.27
2019-01-30T20:37:58.918Z,7.67
2019-01-30T20:40:29.738Z,9.03
2019-01-30T20:43:00.748Z,8.00
2019-01-30T20:45:33.703Z,10.00
2019-01-30T20:48:04.598Z,8.53
2019-01-30T20:50:35.908Z,7.83
2019-01-30T20:53:06.801Z,7.07
2019-01-30T20:55:37.878Z,7.67
2019-01-30T20:58:08.635Z,12.90
2019-01-30T21:00:39.843Z,8.10
2019-01-30T21:03:10.723Z,9.63
2019-01-30T21:05:44.764Z,7.73
2019-01-30T21:08:14.343Z,8.70
2019-01-30T21:10:45.084Z,8.53
2019-01-30T21:13:16.079Z,9.80
2019-01-30T21:15:47.406Z,10.87
2019-01-30T21:18:18.472Z,10.03
2019-01-30T21:20:49.336Z,8.80
2019-01-30T21:23:20.638Z,6.30
2019-01-30T21:25:51.635Z,8.73
2019-01-30T21:28:22.485Z,9.53
2019-01-30T21:30:53.614Z,7.60
2019-01-30T21:33:24.972Z,12.43
2019-01-30T21:35:56.152Z,9.53
2019-01-30T21:38:26.909Z,11.50
2019-01-30T21:40:58.217Z,11.40
2019-01-30T21:43:29.263Z,9.27
2019-01-30T21:46:00.392Z,12.87
2019-01-30T21:48:32.200Z,6.63
2019-01-30T21:51:03.240Z,6.37
2019-01-30T21:53:34.974Z,24.03
2019-01-30T21:56:05.997Z,14.53
2019-01-30T21:58:36.769Z,7.60
2019-01-30T22:01:07.510Z,8.57
2019-01-30T22:03:38.665Z,9.20
2019-01-30T22:06:09.520Z,7.37
2019-01-30T22:08:40.986Z,8.03
2019-01-30T22:11:13.585Z,9.03
2019-01-30T22:13:44.640Z,8.00
2019-01-30T22:16:15.679Z,8.47
2019-01-30T22:18:46.581Z,6.53
2019-01-30T22:21:17.329Z,7.93
2019-01-30T22:23:48.160Z,8.20
2019-01-30T22:26:18.904Z,12.03
2019-01-30T22:28:49.914Z,6.47
2019-01-30T22:31:20.665Z,4.77
2019-01-30T22:33:51.660Z,10.63
2019-01-30T22:36:22.506Z,7.57
2019-01-30T22:38:53.271Z,7.03
2019-01-30T22:41:24.323Z,9.90
2019-01-30T22:43:55.533Z,5.83
2019-01-30T22:46:26.528Z,7.10
2019-01-30T22:48:57.515Z,9.43
2019-01-30T22:51:28.508Z,10.97
2019-01-30T22:53:59.264Z,10.57
2019-01-30T22:56:30.272Z,7.97
2019-01-30T22:59:01.305Z,5.03
2019-01-30T23:01:56.703Z,8.27
2019-01-30T23:04:58.542Z,11.03
2019-01-30T23:08:04.540Z,8.07
2019-01-30T23:11:07.265Z,8.83
2019-01-30T23:14:01.826Z,6.33
2019-01-30T23:17:07.701Z,9.10
2019-01-30T23:20:01.406Z,10.53
2019-01-30T23:23:13.651Z,7.50
2019-01-30T23:26:15.379Z,6.73
2019-01-30T23:29:23.172Z,6.57
2019-01-30T23:32:26.408Z,6.50
2019-01-30T23:35:30.826Z,5.87
2019-01-30T23:38:43.165Z,6.37
2019-01-30T23:41:38.292Z,6.67
2019-01-30T23:44:39.246Z,8.77
2019-01-30T23:47:30.893Z,8.90
2019-01-30T23:51:10.484Z,8.80
2019-01-30T23:54:18.979Z,10.60
2019-01-30T23:57:17.109Z,8.90
